Time;durP1;ratioP1;P1;durP2;ratioP2;P2;SDS_P1;SDS_P2;PMS_P1;PMS_P2;Temp;Humidity;BMP_temperature;BMP_pressure;BME280_temperature;BME280_humidity;BME280_pressure;Samples;Min_cycle;Max_cycle;Signal;HPM_P1;HPM_P2
2021/03/20 05:02:27;;;;;;;10.00;8.15;;;3.70;49.50;;;;;;6254886;22;20345;-93
2021/03/20 05:04:59;;;;;;;10.60;7.70;;;3.80;49.30;;;;;;6284569;22;20590;-92
2021/03/20 05:07:26;;;;;;;10.77;7.80;;;4.20;49.40;;;;;;6284343;22;20144;-93
2021/03/20 05:10:01;;;;;;;9.70;8.40;;;4.00;49.30;;;;;;6285067;22;20182;-93
2021/03/20 05:12:30;;;;;;;8.77;7.75;;;4.00;49.20;;;;;;6285636;22;20144;-93
2021/03/20 05:15:18;;;;;;;8.20;7.40;;;4.50;49.20;;;;;;6285691;22;20201;-93
2021/03/20 05:17:44;;;;;;;8.07;7.28;;;4.00;48.60;;;;;;6312976;22;20151;-94
2021/03/20 05:20:10;;;;;;;11.90;9.37;;;3.90;48.90;;;;;;6285334;22;20144;-92
2021/03/20 05:22:42;;;;;;;9.40;8.23;;;4.00;48.10;;;;;;6290972;22;20207;-93
2021/03/20 05:25:12;;;;;;;11.02;9.30;;;4.00;47.90;;;;;;6286313;22;20837;-93
2021/03/20 05:27:37;;;;;;;12.13;8.85;;;3.70;47.70;;;;;;6285276;22;20172;-94
2021/03/20 05:30:04;;;;;;;7.80;7.10;;;3.80;47.60;;;;;;6290300;22;20230;-92
2021/03/20 05:32:32;;;;;;;11.20;8.32;;;3.90;47.60;;;;;;6288951;22;20141;-92
2021/03/20 05:35:00;;;;;;;9.05;8.15;;;4.00;47.90;;;;;;6283398;22;20156;-92
2021/03/20 05:37:33;;;;;;;10.20;8.45;;;3.90;47.60;;;;;;6284152;22;20144;-94
2021/03/20 05:39:59;;;;;;;8.73;7.30;;;3.70;48.10;;;;;;6285444;22;20152;-92
2021/03/20 05:44:56;;;;;;;10.40;7.97;;;4.00;48.00;;;;;;6279731;22;20192;-92
2021/03/20 06:07:44;;;;;;;12.07;10.18;;;3.50;47.30;;;;;;6321993;22;20360;-93
2021/03/20 06:17:21;;;;;;;9.25;7.88;;;3.90;48.30;;;;;;6319545;22;20178;-93
2021/03/20 06:20:14;;;;;;;13.13;9.00;;;3.90;48.30;;;;;;6291358;22;20149;-92
2021/03/20 06:26:08;;;;;;;10.82;8.32;;;4.00;48.60;;;;;;6288615;22;20183;-94
2021/03/20 06:28:51;;;;;;;10.68;8.93;;;4.30;49.80;;;;;;6294437;22;20141;-94
2021/03/20 06:37:55;;;;;;;10.20;9.10;;;4.60;48.50;;;;;;6299313;22;20232;-92
2021/03/20 06:40:59;;;;;;;9.40;8.25;;;4.50;49.00;;;;;;6219052;23;20161;-93
2021/03/20 06:43:31;;;;;;;10.57;9.32;;;5.10;48.90;;;;;;6193873;23;20229;-93
2021/03/20 06:45:57;;;;;;;12.18;8.98;;;5.50;48.70;;;;;;6204021;23;20230;-93
2021/03/20 06:48:32;;;;;;;11.82;9.85;;;5.10;48.70;;;;;;6204143;23;20147;-92
2021/03/20 06:51:00;;;;;;;11.20;10.02;;;5.20;48.90;;;;;;6202500;23;20178;-92
2021/03/20 06:53:43;;;;;;;11.02;9.88;;;5.20;48.90;;;;;;6198685;23;20569;-91
2021/03/20 06:56:12;;;;;;;12.48;11.15;;;5.50;49.30;;;;;;6192686;23;20635;-89
2021/03/20 06:58:40;;;;;;;10.90;9.82;;;5.70;49.30;;;;;;6193391;23;20262;-88
2021/03/20 07:01:33;;;;;;;10.57;9.57;;;6.00;49.60;;;;;;6194608;23;20162;-91
2021/03/20 07:04:09;;;;;;;12.60;10.73;;;5.80;49.00;;;;;;6192821;23;20255;-89
2021/03/20 07:09:51;;;;;;;10.32;9.35;;;5.80;44.80;;;;;;6215870;23;20601;-92
2021/03/20 07:12:25;;;;;;;10.63;9.50;;;5.90;45.40;;;;;;6255365;22;20212;-92
2021/03/20 07:14:57;;;;;;;8.68;7.78;;;5.60;46.50;;;;;;6280006;22;20186;-93
2021/03/20 07:21:23;;;;;;;11.65;9.68;;;6.10;47.20;;;;;;6284845;22;20187;-95
2021/03/20 07:24:00;;;;;;;9.90;8.10;;;6.20;45.50;;;;;;6281612;22;20200;-92
2021/03/20 13:58:08;;;;;;;3.15;2.83;;;8.40;20.40;;;;;;6307552;22;20203;-90
2021/03/20 14:00:34;;;;;;;2.75;2.40;;;8.40;19.40;;;;;;6280352;22;20288;-82
2021/03/20 14:03:00;;;;;;;2.40;2.20;;;8.70;19.00;;;;;;6280779;22;20148;-82
2021/03/20 14:05:25;;;;;;;4.03;3.13;;;8.60;18.80;;;;;;6279368;22;20825;-84
2021/03/20 14:07:57;;;;;;;3.10;2.73;;;9.00;18.80;;;;;;6281324;22;20386;-85
2021/03/20 14:10:30;;;;;;;3.15;2.85;;;9.50;18.60;;;;;;6283087;22;20594;-88
2021/03/20 14:12:57;;;;;;;2.75;2.40;;;9.00;19.50;;;;;;6281202;22;20567;-84
2021/03/20 14:15:23;;;;;;;3.08;2.83;;;8.90;18.90;;;;;;6281271;22;20171;-84
2021/03/20 14:18:12;;;;;;;4.47;3.25;;;9.20;18.40;;;;;;6281394;22;20147;-84
2021/03/20 14:20:42;;;;;;;3.10;2.60;;;9.10;17.80;;;;;;6281673;22;20219;-84
2021/03/20 14:23:29;;;;;;;2.95;2.53;;;8.90;17.10;;;;;;6281044;22;20553;-83
2021/03/20 14:25:56;;;;;;;3.72;2.67;;;9.00;18.60;;;;;;6280722;22;20141;-82
2021/03/20 14:28:29;;;;;;;3.17;2.90;;;8.60;18.70;;;;;;6281668;22;20513;-82
2021/03/20 14:30:57;;;;;;;2.90;2.70;;;9.10;18.90;;;;;;6280645;22;20503;-85
2021/03/20 14:33:36;;;;;;;3.40;3.05;;;9.10;18.20;;;;;;6281442;22;20473;-86
2021/03/20 14:36:08;;;;;;;3.25;3.00;;;9.40;18.40;;;;;;6308418;22;20129;-86
2021/03/20 14:38:35;;;;;;;4.07;3.10;;;9.50;19.30;;;;;;6280510;22;20144;-84
2021/03/20 14:41:01;;;;;;;3.10;2.90;;;9.00;20.00;;;;;;6280977;22;20144;-83
2021/03/20 14:43:27;;;;;;;4.63;2.80;;;9.00;19.60;;;;;;6280642;22;20155;-83
2021/03/20 14:46:05;;;;;;;3.47;2.92;;;9.20;20.30;;;;;;6280603;22;20148;-83
2021/03/20 14:48:33;;;;;;;3.85;3.45;;;9.30;20.10;;;;;;6280688;22;20605;-83
2021/03/20 14:51:05;;;;;;;5.13;3.15;;;9.20;18.40;;;;;;6279930;22;20164;-83
2021/03/20 14:53:31;;;;;;;3.00;2.70;;;9.80;19.20;;;;;;6280647;22;20167;-84
2021/03/20 14:55:56;;;;;;;3.77;3.10;;;9.60;19.00;;;;;;6280226;22;20193;-84
2021/03/20 14:58:22;;;;;;;3.40;2.70;;;9.70;18.40;;;;;;6281658;22;20164;-83
2021/03/20 15:00:52;;;;;;;2.90;2.70;;;9.60;18.10;;;;;;6282850;22;20152;-84
2021/03/20 15:03:17;;;;;;;4.30;3.38;;;9.30;18.50;;;;;;6282591;22;20534;-83
2021/03/20 15:05:49;;;;;;;2.90;2.60;;;9.00;19.30;;;;;;6282582;22;20141;-84
2021/03/20 15:08:18;;;;;;;3.03;2.83;;;8.90;20.00;;;;;;6282694;22;20235;-83
2021/03/20 15:10:56;;;;;;;3.08;2.88;;;9.30;18.80;;;;;;6282477;22;20188;-83
2021/03/20 15:13:23;;;;;;;3.13;2.83;;;9.10;19.30;;;;;;6284817;22;20140;-84
2021/03/20 15:15:48;;;;;;;3.42;2.97;;;9.30;19.80;;;;;;6282128;22;20148;-84
2021/03/20 15:18:20;;;;;;;3.20;3.00;;;9.20;20.00;;;;;;6282585;22;20463;-83
2021/03/20 15:20:46;;;;;;;4.00;3.60;;;9.00;20.30;;;;;;6309987;22;20796;-83
2021/03/20 15:23:25;;;;;;;3.10;2.80;;;9.30;20.20;;;;;;6282520;22;20172;-84
2021/03/20 15:25:51;;;;;;;3.85;2.90;;;9.00;20.20;;;;;;6282572;22;20152;-84
2021/03/20 15:28:19;;;;;;;3.37;3.07;;;8.80;20.40;;;;;;6282437;22;20149;-84
2021/03/20 15:30:45;;;;;;;3.20;2.90;;;8.80;20.80;;;;;;6282166;22;20179;-84
2021/03/20 15:33:38;;;;;;;4.70;3.72;;;8.80;20.40;;;;;;6282196;22;20168;-83
2021/03/20 15:36:04;;;;;;;4.22;3.67;;;8.70;20.60;;;;;;6282167;22;20187;-84
2021/03/20 15:38:30;;;;;;;3.00;2.80;;;8.80;20.60;;;;;;6282737;22;20148;-84
2021/03/20 15:41:00;;;;;;;3.23;2.90;;;8.70;20.60;;;;;;6282231;22;20428;-84
2021/03/20 15:43:29;;;;;;;3.65;3.10;;;8.60;20.30;;;;;;6282148;22;20155;-84
2021/03/20 15:46:22;;;;;;;3.75;3.50;;;8.60;21.50;;;;;;6282077;22;20156;-84
2021/03/20 15:48:48;;;;;;;4.28;2.80;;;8.50;20.90;;;;;;6308010;22;20513;-84
2021/03/20 15:51:17;;;;;;;3.53;3.20;;;8.20;20.90;;;;;;6282012;22;20180;-84
2021/03/20 15:53:43;;;;;;;3.90;3.47;;;8.60;20.70;;;;;;6281998;22;20546;-84
2021/03/20 15:56:10;;;;;;;3.33;3.07;;;8.20;19.70;;;;;;6280992;22;21339;-84
2021/03/20 15:58:38;;;;;;;2.97;2.67;;;7.70;20.20;;;;;;6281968;22;20387;-84
2021/03/20 16:01:14;;;;;;;3.30;2.92;;;8.00;20.90;;;;;;6281750;22;20149;-84
2021/03/20 16:03:40;;;;;;;4.72;3.25;;;8.40;21.30;;;;;;6308959;22;20214;-83
2021/03/20 16:06:17;;;;;;;4.28;3.88;;;8.20;21.30;;;;;;6281877;22;20147;-83
2021/03/20 16:08:47;;;;;;;3.83;3.40;;;7.90;21.50;;;;;;6279012;22;20144;-82
2021/03/20 16:11:14;;;;;;;6.55;4.03;;;8.20;21.30;;;;;;6277867;22;20542;-82
2021/03/20 16:13:44;;;;;;;3.70;3.40;;;7.80;21.10;;;;;;6281885;22;20149;-82
2021/03/20 16:16:20;;;;;;;3.30;3.00;;;7.90;22.20;;;;;;6309055;22;20174;-82
2021/03/20 16:18:46;;;;;;;4.30;3.97;;;7.80;21.90;;;;;;6281726;22;20144;-82
2021/03/20 16:21:20;;;;;;;3.25;2.95;;;7.70;21.60;;;;;;6281828;22;20136;-83
2021/03/20 16:23:46;;;;;;;5.07;3.10;;;7.90;21.40;;;;;;6281752;22;20606;-83
2021/03/20 16:26:15;;;;;;;3.47;3.20;;;8.20;21.80;;;;;;6281684;22;20149;-83
2021/03/20 16:28:43;;;;;;;5.70;3.42;;;7.70;22.10;;;;;;6281464;22;20717;-83
2021/03/20 16:31:18;;;;;;;5.03;3.30;;;8.00;21.00;;;;;;6281880;22;20199;-82
2021/03/20 16:33:44;;;;;;;3.97;3.10;;;7.90;21.10;;;;;;6308843;22;20132;-83
2021/03/20 16:36:12;;;;;;;6.93;4.93;;;8.00;22.20;;;;;;6281739;22;20137;-82
2021/03/20 16:38:41;;;;;;;3.58;3.05;;;7.90;20.40;;;;;;6282344;22;20825;-83
2021/03/20 16:41:20;;;;;;;3.75;3.28;;;7.50;20.10;;;;;;6281951;22;20145;-83
2021/03/20 16:43:47;;;;;;;5.30;3.15;;;7.20;20.30;;;;;;6310164;22;20203;-83
2021/03/20 16:46:35;;;;;;;2.95;2.75;;;7.70;20.80;;;;;;6282611;22;20231;-83
2021/03/20 16:49:01;;;;;;;2.95;2.75;;;7.60;21.20;;;;;;6283189;22;20145;-83
2021/03/20 16:51:30;;;;;;;3.05;2.75;;;7.80;20.80;;;;;;6282443;22;20195;-83
2021/03/20 16:53:56;;;;;;;3.60;2.65;;;7.70;21.20;;;;;;6283366;22;20136;-84
2021/03/20 16:56:22;;;;;;;3.65;2.38;;;7.40;21.50;;;;;;6281280;22;20649;-84
2021/03/20 16:58:53;;;;;;;2.90;2.50;;;7.60;21.50;;;;;;6281803;22;20198;-84
2021/03/20 17:01:19;;;;;;;2.80;2.45;;;7.40;21.70;;;;;;6281428;22;20559;-84
2021/03/20 17:03:45;;;;;;;3.20;2.78;;;7.20;21.30;;;;;;6281246;22;20194;-84
2021/03/20 17:06:15;;;;;;;2.90;2.50;;;7.00;21.50;;;;;;6282183;22;20140;-84
2021/03/20 17:08:41;;;;;;;8.13;2.50;;;7.60;22.10;;;;;;6281425;22;20148;-84
2021/03/20 17:11:10;;;;;;;14.50;10.80;;;7.00;21.30;;;;;;6308224;22;20589;-83
2021/03/20 17:13:36;;;;;;;4.68;3.50;;;7.70;21.40;;;;;;6279893;22;20438;-84
2021/03/20 17:16:20;;;;;;;7.77;7.17;;;7.40;21.10;;;;;;6280748;22;20136;-88
2021/03/20 17:18:46;;;;;;;3.95;3.65;;;7.80;21.40;;;;;;6282682;22;20136;-83
2021/03/20 17:21:25;;;;;;;3.50;3.20;;;7.60;21.00;;;;;;6280573;22;20194;-84
2021/03/20 17:23:50;;;;;;;4.53;3.00;;;7.60;20.70;;;;;;6281310;22;20145;-83
2021/03/20 17:26:18;;;;;;;5.13;3.83;;;7.60;21.20;;;;;;6281152;22;20235;-83
2021/03/20 17:28:44;;;;;;;5.85;5.28;;;7.80;21.10;;;;;;6281300;22;20260;-83
2021/03/20 17:31:19;;;;;;;3.47;2.78;;;7.80;21.20;;;;;;6280848;22;20168;-83
2021/03/20 17:33:45;;;;;;;3.40;3.20;;;7.40;21.00;;;;;;6281424;22;20194;-83
2021/03/20 17:36:49;;;;;;;5.50;3.60;;;6.80;20.80;;;;;;6283346;22;20144;-89
2021/03/20 17:39:14;;;;;;;3.03;2.70;;;7.60;21.70;;;;;;6283690;22;20144;-87
2021/03/20 17:42:17;;;;;;;4.23;3.93;;;7.60;21.20;;;;;;6284035;22;20225;-88
2021/03/20 17:44:42;;;;;;;5.18;4.05;;;7.70;21.50;;;;;;6283422;22;20144;-90
2021/03/20 17:47:08;;;;;;;3.60;3.30;;;7.90;21.50;;;;;;6283827;22;20155;-90
2021/03/20 17:49:34;;;;;;;3.88;3.47;;;8.00;21.80;;;;;;6282442;22;20404;-88
2021/03/20 17:52:00;;;;;;;4.50;3.53;;;8.40;21.60;;;;;;6283389;22;20140;-88
2021/03/20 17:54:25;;;;;;;5.93;3.80;;;8.10;20.50;;;;;;6282643;22;20145;-89
2021/03/20 17:56:51;;;;;;;5.70;3.70;;;7.90;21.10;;;;;;6276804;22;20434;-89
2021/03/20 17:59:17;;;;;;;4.40;2.97;;;7.70;21.60;;;;;;6277871;22;20230;-90
2021/03/20 18:02:30;;;;;;;2.73;2.53;;;7.60;21.40;;;;;;6278439;22;20149;-89
2021/03/20 18:05:02;;;;;;;5.78;3.35;;;7.80;21.30;;;;;;6293070;22;20149;-91
2021/03/20 18:07:33;;;;;;;3.13;2.83;;;7.90;21.20;;;;;;6270922;22;20157;-94
2021/03/20 18:13:22;;;;;;;3.75;3.35;;;8.30;21.80;;;;;;6287809;22;20131;-96
2021/03/20 19:03:09;;;;;;;4.70;3.80;;;8.10;24.10;;;;;;6193515;22;819462;-91
2021/03/20 19:05:35;;;;;;;4.50;3.53;;;8.00;23.80;;;;;;6226950;23;20149;-91
2021/03/20 19:08:03;;;;;;;4.25;3.03;;;8.10;23.60;;;;;;6227201;23;20233;-90
2021/03/20 19:10:48;;;;;;;4.50;2.50;;;8.00;22.70;;;;;;6227080;23;20546;-90
2021/03/20 19:13:14;;;;;;;3.05;2.70;;;8.10;23.10;;;;;;6227014;23;20149;-91
2021/03/20 19:15:40;;;;;;;3.28;2.47;;;7.50;23.30;;;;;;6226622;23;20166;-91
2021/03/20 19:18:08;;;;;;;4.63;3.00;;;8.10;24.10;;;;;;6226275;23;20143;-91
2021/03/20 19:20:37;;;;;;;2.75;2.50;;;8.00;24.20;;;;;;6226658;23;20146;-91
2021/03/20 19:23:39;;;;;;;5.90;2.90;;;7.90;24.50;;;;;;6227130;23;20138;-91
2021/03/20 19:26:05;;;;;;;5.50;3.13;;;7.80;24.80;;;;;;6229219;23;20145;-91
2021/03/20 19:28:48;;;;;;;3.47;2.65;;;7.70;24.10;;;;;;6222154;23;20518;-90
2021/03/20 19:34:24;;;;;;;4.90;3.17;;;8.20;24.50;;;;;;6215196;23;20236;-91
2021/03/20 19:36:50;;;;;;;4.87;2.80;;;8.00;24.90;;;;;;6221899;23;20150;-92
2021/03/20 19:43:22;;;;;;;5.60;3.22;;;8.10;25.00;;;;;;6224134;23;20662;-91
2021/03/20 19:45:48;;;;;;;5.22;4.03;;;7.90;24.80;;;;;;6222803;23;20204;-91
2021/03/20 19:48:18;;;;;;;6.60;3.27;;;8.10;25.00;;;;;;6222024;23;20150;-91
2021/03/20 19:51:29;;;;;;;4.13;3.75;;;7.90;24.60;;;;;;6222602;23;20461;-92
2021/03/20 19:53:55;;;;;;;5.10;3.63;;;8.00;24.40;;;;;;6231727;23;20180;-92
2021/03/20 19:56:25;;;;;;;4.20;3.35;;;8.20;24.80;;;;;;6226371;23;20574;-96
2021/03/20 19:58:51;;;;;;;3.75;3.45;;;8.10;25.20;;;;;;6224798;23;20157;-91
2021/03/20 20:01:20;;;;;;;3.42;2.80;;;7.90;25.70;;;;;;6220329;23;20190;-92
2021/03/20 20:03:47;;;;;;;5.32;2.90;;;8.10;25.30;;;;;;6197960;23;20161;-92
2021/03/20 20:06:14;;;;;;;3.13;2.60;;;7.90;25.20;;;;;;6199013;23;20158;-92
2021/03/20 20:08:41;;;;;;;3.53;3.15;;;8.00;24.40;;;;;;6198237;23;20150;-92
2021/03/20 20:11:07;;;;;;;4.50;3.17;;;7.80;24.60;;;;;;6196701;23;20241;-92
2021/03/20 20:13:34;;;;;;;3.95;3.42;;;7.80;24.70;;;;;;6195718;23;20174;-92
2021/03/20 20:16:18;;;;;;;3.10;2.80;;;7.90;24.90;;;;;;6197657;23;20217;-93
2021/03/20 20:18:50;;;;;;;3.42;3.05;;;7.90;24.90;;;;;;6198415;23;20173;-93
2021/03/20 20:21:35;;;;;;;2.97;2.78;;;7.70;24.90;;;;;;6198276;23;20170;-93
2021/03/20 20:24:02;;;;;;;3.15;2.92;;;8.20;25.00;;;;;;6221343;23;20161;-91
2021/03/20 20:27:09;;;;;;;7.25;5.10;;;8.00;25.60;;;;;;6225548;23;20181;-91
2021/03/20 20:29:36;;;;;;;7.93;6.63;;;7.80;25.50;;;;;;6199545;23;20154;-94
2021/03/20 20:32:27;;;;;;;6.18;5.28;;;7.90;25.70;;;;;;6200886;23;20151;-92
2021/03/20 20:34:52;;;;;;;6.72;6.13;;;8.00;26.00;;;;;;6202325;23;20180;-92
2021/03/20 20:37:47;;;;;;;8.60;7.00;;;7.60;26.10;;;;;;6201620;23;20374;-92
2021/03/20 20:40:14;;;;;;;9.55;7.10;;;7.60;26.30;;;;;;6207216;23;20570;-93
2021/03/20 20:43:19;;;;;;;7.47;5.90;;;7.70;26.90;;;;;;6204669;23;20153;-93
2021/03/20 20:45:56;;;;;;;5.20;4.40;;;7.50;27.30;;;;;;6210478;23;20158;-93
2021/03/20 20:48:22;;;;;;;5.75;4.78;;;7.20;27.10;;;;;;6200030;23;20157;-91
2021/03/20 20:50:48;;;;;;;6.23;4.63;;;7.50;27.10;;;;;;6192297;23;20146;-91
2021/03/20 20:53:14;;;;;;;6.40;5.27;;;7.50;27.00;;;;;;6217268;23;20365;-91
2021/03/20 20:55:40;;;;;;;5.20;4.57;;;7.30;26.50;;;;;;6193197;23;20171;-91
2021/03/20 20:58:26;;;;;;;5.82;4.53;;;7.70;26.20;;;;;;6193510;23;20580;-92
2021/03/20 21:00:58;;;;;;;4.40;3.70;;;7.80;26.20;;;;;;6191742;23;20585;-90
2021/03/20 21:03:29;;;;;;;4.57;4.25;;;7.70;26.30;;;;;;6192947;23;20157;-93
2021/03/20 21:06:14;;;;;;;6.03;4.30;;;7.90;26.30;;;;;;6194225;23;20151;-92
2021/03/20 21:08:40;;;;;;;5.28;4.78;;;7.60;26.10;;;;;;6192283;23;20639;-89
2021/03/20 21:11:09;;;;;;;4.27;3.87;;;7.70;26.70;;;;;;6191300;23;20146;-89
2021/03/20 21:13:36;;;;;;;4.15;3.78;;;7.70;27.10;;;;;;6192142;23;20154;-88
2021/03/20 21:16:03;;;;;;;5.57;3.92;;;7.60;27.20;;;;;;6216708;23;20257;-90
2021/03/20 21:18:54;;;;;;;4.93;4.35;;;7.50;27.00;;;;;;6216791;23;20154;-90
2021/03/20 21:21:20;;;;;;;5.95;3.80;;;7.70;27.30;;;;;;6192340;23;20564;-90
2021/03/20 21:23:46;;;;;;;4.63;4.15;;;7.70;27.00;;;;;;6191732;23;20170;-90
2021/03/20 21:29:33;;;;;;;6.78;4.50;;;7.60;27.70;;;;;;6218814;23;20133;-90
2021/03/20 21:35:21;;;;;;;5.93;4.25;;;7.60;27.30;;;;;;6220849;23;20221;-90
2021/03/20 21:38:30;;;;;;;4.73;4.33;;;7.70;27.20;;;;;;6216998;23;20142;-90
2021/03/20 21:40:56;;;;;;;4.65;4.25;;;7.50;27.60;;;;;;6217656;23;20466;-91
2021/03/20 21:43:23;;;;;;;4.60;4.20;;;7.20;27.80;;;;;;6191624;23;20177;-90
2021/03/20 21:49:11;;;;;;;4.10;3.55;;;7.30;29.30;;;;;;6218021;23;20209;-91
2021/03/20 21:54:58;;;;;;;4.63;3.88;;;6.70;30.80;;;;;;6217739;23;20225;-92
2021/03/20 21:58:13;;;;;;;6.70;4.93;;;6.60;30.10;;;;;;6192669;23;20586;-89
